createdAt,value
2022-10-22T00:02:08.106Z,12.75
2022-10-22T00:04:35.707Z,10.82
2022-10-22T00:07:02.804Z,12.77
2022-10-22T00:09:29.470Z,12.20
2022-10-22T00:11:56.162Z,10.80
2022-10-22T00:14:22.958Z,11.10
2022-10-22T00:16:49.686Z,12.25
2022-10-22T00:19:16.567Z,12.85
2022-10-22T00:21:43.342Z,11.43
2022-10-22T00:24:10.073Z,13.25
2022-10-22T00:26:36.808Z,17.45
2022-10-22T00:29:04.033Z,16.23
2022-10-22T00:31:30.883Z,15.18
2022-10-22T00:33:57.650Z,11.27
2022-10-22T00:36:24.364Z,14.32
2022-10-22T00:38:51.124Z,12.10
2022-10-22T00:41:17.902Z,12.77
2022-10-22T00:44:00.052Z,12.98
2022-10-22T00:46:26.827Z,10.80
2022-10-22T00:48:55.015Z,13.25
2022-10-22T00:51:24.064Z,16.80
2022-10-22T00:53:56.049Z,15.02
2022-10-22T00:56:25.859Z,15.25
2022-10-22T00:58:59.866Z,17.73
2022-10-22T01:01:29.779Z,12.93
2022-10-22T01:03:56.967Z,14.05
2022-10-22T01:06:30.651Z,13.15
2022-10-22T01:09:26.519Z,11.07
2022-10-22T01:12:34.705Z,13.20
2022-10-22T01:15:04.539Z,11.90
2022-10-22T01:18:06.526Z,14.75
2022-10-22T01:20:51.885Z,16.40
2022-10-22T01:23:33.265Z,13.63
2022-10-22T01:26:36.159Z,16.25
2022-10-22T01:29:10.177Z,13.23
2022-10-22T01:31:44.451Z,14.35
2022-10-22T01:34:14.886Z,14.90
2022-10-22T01:36:42.781Z,15.43
2022-10-22T01:39:10.845Z,15.20
2022-10-22T01:41:40.037Z,15.57
2022-10-22T01:44:06.799Z,13.73
2022-10-22T01:46:33.849Z,13.38
2022-10-22T01:49:33.085Z,17.27
2022-10-22T01:52:14.601Z,16.80
2022-10-22T01:55:11.605Z,15.13
2022-10-22T01:58:19.573Z,17.17
2022-10-22T02:00:57.152Z,13.77
2022-10-22T02:03:32.234Z,18.60
2022-10-22T02:06:04.650Z,13.98
2022-10-22T02:08:37.055Z,15.02
2022-10-22T02:13:37.639Z,16.52
2022-10-22T02:18:37.623Z,13.38
2022-10-22T02:23:39.013Z,15.60
2022-10-22T02:26:21.441Z,12.38
2022-10-22T02:29:11.251Z,14.68
2022-10-22T02:31:40.601Z,13.65
2022-10-22T02:34:14.687Z,20.02
2022-10-22T02:36:46.678Z,16.33
2022-10-22T02:39:17.719Z,15.05
2022-10-22T02:41:44.594Z,18.52
2022-10-22T02:44:11.800Z,15.65
2022-10-22T02:46:40.114Z,16.35
2022-10-22T02:49:07.066Z,13.68
2022-10-22T02:51:34.378Z,19.00
2022-10-22T02:54:01.259Z,14.18
2022-10-22T02:56:27.943Z,15.05
2022-10-22T02:58:54.702Z,17.50
2022-10-22T03:01:21.575Z,18.75
2022-10-22T03:03:48.360Z,13.27
2022-10-22T03:06:15.255Z,15.20
2022-10-22T03:08:42.344Z,12.90
2022-10-22T03:11:09.312Z,14.80
2022-10-22T03:13:36.131Z,14.25
2022-10-22T03:16:02.933Z,13.35
2022-10-22T03:18:29.681Z,15.68
2022-10-22T03:21:34.147Z,16.10
2022-10-22T03:26:29.658Z,14.80
2022-10-22T03:28:56.650Z,16.25
2022-10-22T03:31:23.414Z,14.35
2022-10-22T03:33:50.235Z,14.98
2022-10-22T03:36:17.155Z,14.68
2022-10-22T03:38:43.915Z,14.63
2022-10-22T03:41:10.928Z,14.20
2022-10-22T03:43:39.210Z,15.18
2022-10-22T03:46:05.999Z,12.10
2022-10-22T03:48:32.787Z,13.90
2022-10-22T03:50:59.533Z,13.70
2022-10-22T03:53:26.242Z,15.23
2022-10-22T03:55:53.003Z,14.43
2022-10-22T03:58:19.806Z,15.00
2022-10-22T04:00:46.592Z,14.38
2022-10-22T04:03:13.463Z,16.63
2022-10-22T04:05:40.268Z,17.73
2022-10-22T04:08:07.039Z,13.13
2022-10-22T04:10:33.791Z,15.60
2022-10-22T04:13:00.543Z,17.27
2022-10-22T04:15:29.013Z,14.48
2022-10-22T04:17:56.163Z,14.23
2022-10-22T04:20:23.039Z,16.38
2022-10-22T04:22:49.818Z,14.25
2022-10-22T04:25:16.650Z,14.07
2022-10-22T04:27:43.496Z,17.25
2022-10-22T04:30:10.830Z,13.90
2022-10-22T04:32:37.593Z,14.98
2022-10-22T04:35:04.703Z,18.08
2022-10-22T04:37:32.823Z,15.60
2022-10-22T04:39:59.588Z,16.05
2022-10-22T04:42:26.589Z,17.90
2022-10-22T04:44:53.302Z,17.00
2022-10-22T04:47:20.032Z,18.88
2022-10-22T07:06:32.371Z,15.63
2022-10-22T07:09:02.588Z,17.25
2022-10-22T07:11:37.340Z,14.73
2022-10-22T07:14:04.446Z,15.82
2022-10-22T07:16:32.468Z,17.83
2022-10-22T07:19:00.578Z,16.00
2022-10-22T07:21:27.759Z,17.20
2022-10-22T07:23:54.878Z,17.25
2022-10-22T07:26:21.627Z,13.48
2022-10-22T07:28:48.807Z,20.02
2022-10-22T07:31:18.003Z,13.25
2022-10-22T07:33:45.571Z,15.88
2022-10-22T07:36:17.689Z,17.45
2022-10-22T07:38:46.831Z,14.45
2022-10-22T07:41:15.203Z,18.00
2022-10-22T07:43:41.993Z,22.92
2022-10-22T07:46:09.045Z,17.75
2022-10-22T07:48:39.211Z,16.73
2022-10-22T07:51:06.765Z,16.40
2022-10-22T07:53:34.148Z,14.45
2022-10-22T07:56:01.225Z,16.60
2022-10-22T07:58:28.051Z,25.17
2022-10-22T08:01:00.965Z,15.13
2022-10-22T08:03:28.797Z,14.00
2022-10-22T08:05:55.749Z,16.33
2022-10-22T08:08:25.874Z,16.58
2022-10-22T08:10:56.590Z,13.05
2022-10-22T08:13:23.969Z,16.65
2022-10-22T08:15:52.463Z,19.90
2022-10-22T08:18:23.179Z,16.05
2022-10-22T08:20:49.896Z,18.65
2022-10-22T08:23:16.658Z,16.02
2022-10-22T08:25:43.423Z,14.52
2022-10-22T08:28:10.164Z,14.98
2022-10-22T08:30:38.632Z,14.98
2022-10-22T08:33:06.207Z,15.27
2022-10-22T08:35:33.181Z,14.55
2022-10-22T08:37:59.917Z,13.70
2022-10-22T08:40:37.353Z,19.33
2022-10-22T08:43:12.653Z,20.55
2022-10-22T08:46:02.672Z,19.85
2022-10-22T08:48:45.897Z,14.68
2022-10-22T08:51:16.667Z,15.27
2022-10-22T08:54:13.472Z,17.10
2022-10-22T08:56:45.102Z,14.20
2022-10-22T08:59:20.141Z,11.82
2022-10-22T09:01:51.390Z,14.13
2022-10-22T09:04:33.667Z,14.32
2022-10-22T09:07:00.870Z,18.10
2022-10-22T09:09:35.132Z,16.75
2022-10-22T09:12:04.579Z,14.82
2022-10-22T09:14:31.455Z,12.40
2022-10-22T09:17:38.500Z,12.98
2022-10-22T09:20:26.737Z,13.35
2022-10-22T09:23:19.358Z,14.93
2022-10-22T09:25:46.929Z,15.32
2022-10-22T09:28:14.150Z,15.35
2022-10-22T09:30:41.670Z,13.77
2022-10-22T09:33:14.504Z,18.00
2022-10-22T09:35:54.352Z,14.18
2022-10-22T09:38:26.533Z,18.60
2022-10-22T09:40:55.587Z,21.80
2022-10-22T09:43:22.586Z,19.20
2022-10-22T09:45:58.012Z,17.67
2022-10-22T09:48:35.290Z,11.50
2022-10-22T09:51:22.732Z,17.60
2022-10-22T09:54:01.891Z,17.30
2022-10-22T09:56:35.374Z,16.85
2022-10-22T09:59:02.293Z,13.75
2022-10-22T10:01:35.249Z,14.48
2022-10-22T10:04:09.903Z,17.15
2022-10-22T10:06:41.306Z,19.45
2022-10-22T10:09:20.984Z,17.08
2022-10-22T10:12:00.956Z,19.02
2022-10-22T10:14:57.114Z,15.27
2022-10-22T10:17:33.103Z,19.80
2022-10-22T10:20:15.176Z,18.38
2022-10-22T10:22:53.406Z,18.50
2022-10-22T10:25:46.390Z,18.35
2022-10-22T10:28:34.532Z,13.00
2022-10-22T10:31:07.856Z,17.23
2022-10-22T10:34:06.764Z,15.75
2022-10-22T10:37:03.522Z,16.17
2022-10-22T10:40:01.337Z,16.98
2022-10-22T10:42:41.286Z,17.63
2022-10-22T10:45:18.884Z,16.45
2022-10-22T10:47:45.549Z,15.23
2022-10-22T10:50:35.155Z,15.38
2022-10-22T10:53:47.791Z,15.15
2022-10-22T10:56:23.761Z,17.15
2022-10-22T10:58:50.429Z,15.20
2022-10-22T11:01:41.064Z,11.52
2022-10-22T11:04:32.197Z,14.18
2022-10-22T11:07:11.668Z,17.15
2022-10-22T11:10:09.245Z,16.80
2022-10-22T11:12:44.560Z,16.90
2022-10-22T11:15:33.336Z,16.42
2022-10-22T11:18:23.657Z,17.02
2022-10-22T11:20:56.243Z,16.20
2022-10-22T11:23:36.909Z,16.45
2022-10-22T11:26:07.993Z,13.52
2022-10-22T11:28:41.279Z,15.82
2022-10-22T11:31:16.785Z,16.10
2022-10-22T11:34:28.567Z,16.70
2022-10-22T11:36:55.336Z,18.63
2022-10-22T11:39:33.974Z,18.55
2022-10-22T11:42:04.366Z,20.73
2022-10-22T11:44:32.525Z,16.08
2022-10-22T11:47:15.574Z,19.58
2022-10-22T11:49:55.757Z,18.27
2022-10-22T11:52:33.046Z,14.77
2022-10-22T11:55:03.124Z,19.60
2022-10-22T11:57:38.465Z,24.02
2022-10-22T12:00:46.070Z,18.67
2022-10-22T12:03:24.870Z,18.30
2022-10-22T12:06:20.933Z,13.73
2022-10-22T12:08:50.916Z,13.95
2022-10-22T12:11:39.431Z,13.65
2022-10-22T12:14:29.840Z,12.65
2022-10-22T12:17:07.430Z,12.73
2022-10-22T12:19:39.911Z,10.13
2022-10-22T12:22:16.528Z,9.25
2022-10-22T12:24:55.113Z,5.13
2022-10-22T12:27:27.688Z,7.03
2022-10-22T12:32:38.391Z,7.18
2022-10-22T12:35:07.915Z,3.55
2022-10-22T12:37:38.625Z,6.72
2022-10-22T12:40:19.305Z,3.75
2022-10-22T12:42:54.736Z,4.18
2022-10-22T12:45:22.360Z,5.13
2022-10-22T12:47:52.291Z,8.75
2022-10-22T12:50:23.058Z,6.75
2022-10-22T12:52:49.909Z,3.70
2022-10-22T12:55:19.610Z,5.47
2022-10-22T12:57:49.758Z,4.65
2022-10-22T13:00:25.525Z,7.95
2022-10-22T13:02:53.432Z,5.10
2022-10-22T13:05:20.104Z,6.93
2022-10-22T13:07:52.905Z,6.97
2022-10-22T13:10:30.806Z,6.55
2022-10-22T13:12:58.986Z,14.35
2022-10-22T13:15:31.422Z,6.45
2022-10-22T13:18:16.927Z,7.70
2022-10-22T13:21:02.507Z,9.07
2022-10-22T13:23:31.563Z,8.63
2022-10-22T13:26:12.364Z,6.53
2022-10-22T13:28:39.691Z,6.70
2022-10-22T13:31:17.004Z,9.63
2022-10-22T13:33:46.972Z,8.45
2022-10-22T13:36:16.096Z,9.60
2022-10-22T13:38:44.051Z,9.48
2022-10-22T13:41:28.323Z,8.82
2022-10-22T13:43:55.718Z,9.02
2022-10-22T13:46:23.721Z,8.27
2022-10-22T13:48:53.530Z,7.20
2022-10-22T13:51:23.484Z,9.40
2022-10-22T13:53:52.531Z,9.15
2022-10-22T13:56:20.670Z,6.55
2022-10-22T13:58:49.608Z,9.40
2022-10-22T14:01:23.325Z,10.02
2022-10-22T14:03:52.220Z,7.95
2022-10-22T14:06:21.051Z,7.55
2022-10-22T14:08:50.639Z,8.93
2022-10-22T14:11:17.884Z,7.70
2022-10-22T14:13:44.689Z,7.45
2022-10-22T14:16:20.195Z,7.43
2022-10-22T14:18:48.624Z,9.02
2022-10-22T14:21:16.745Z,7.75
2022-10-22T14:23:45.772Z,6.63
2022-10-22T14:26:29.248Z,8.90
2022-10-22T14:29:12.077Z,7.45
2022-10-22T14:31:44.411Z,8.43
2022-10-22T14:34:14.159Z,7.00
2022-10-22T14:36:43.537Z,6.90
2022-10-22T14:39:10.844Z,9.25
2022-10-22T14:41:37.823Z,6.13
2022-10-22T14:44:04.766Z,6.18
2022-10-22T14:46:31.519Z,7.25
2022-10-22T14:48:58.260Z,8.07
2022-10-22T14:51:25.060Z,5.35
2022-10-22T14:53:51.810Z,7.13
2022-10-22T14:56:22.456Z,6.00
2022-10-22T14:58:49.441Z,6.72
2022-10-22T15:01:16.596Z,7.60
2022-10-22T15:03:43.411Z,5.25
2022-10-22T15:06:10.195Z,5.43
2022-10-22T15:08:37.006Z,8.57
2022-10-22T15:11:07.505Z,6.57
2022-10-22T15:13:35.137Z,6.97
2022-10-22T15:16:05.347Z,6.53
2022-10-22T15:18:32.076Z,7.18
2022-10-22T15:21:08.855Z,9.10
2022-10-22T15:23:39.129Z,11.27
2022-10-22T15:26:14.736Z,8.43
2022-10-22T15:28:41.973Z,7.85
2022-10-22T15:31:14.583Z,6.45
2022-10-22T15:36:11.568Z,9.02
2022-10-22T15:38:38.403Z,9.70
2022-10-22T15:41:06.985Z,9.00
2022-10-22T15:43:34.970Z,7.13
2022-10-22T15:46:21.923Z,9.27
2022-10-22T15:48:48.730Z,6.65
2022-10-22T15:51:17.530Z,10.75
2022-10-22T15:53:50.411Z,10.77
2022-10-22T15:56:17.185Z,6.38
2022-10-22T15:58:43.933Z,9.90
2022-10-22T16:01:14.239Z,10.10
2022-10-22T16:03:41.706Z,7.43
2022-10-22T16:06:09.534Z,6.72
2022-10-22T16:08:36.606Z,7.22
2022-10-22T16:11:03.498Z,7.93
2022-10-22T16:13:30.949Z,9.23
2022-10-22T16:15:57.677Z,6.90
2022-10-22T16:18:24.492Z,7.63
2022-10-22T16:20:51.257Z,6.95
2022-10-22T16:23:18.671Z,6.60
2022-10-22T16:25:46.425Z,5.85
2022-10-22T16:28:13.668Z,13.13
2022-10-22T16:30:41.603Z,7.28
2022-10-22T16:33:09.902Z,6.13
2022-10-22T16:35:41.524Z,6.15
2022-10-22T16:38:10.607Z,6.28
2022-10-22T16:40:37.396Z,7.10
2022-10-22T16:43:04.357Z,8.30
2022-10-22T16:45:31.068Z,9.07
2022-10-22T16:47:57.857Z,9.93
2022-10-22T16:50:24.595Z,10.77
2022-10-22T16:52:51.402Z,11.63
2022-10-22T16:55:18.423Z,10.15
2022-10-22T16:57:50.897Z,9.23
2022-10-22T17:00:17.911Z,6.63
2022-10-22T17:02:44.731Z,10.15
2022-10-22T17:05:11.493Z,10.05
2022-10-22T17:07:38.197Z,7.93
2022-10-22T17:10:05.743Z,8.07
2022-10-22T17:12:35.303Z,7.32
2022-10-22T17:15:04.279Z,8.63
2022-10-22T17:17:31.447Z,7.95
2022-10-22T17:19:58.718Z,9.10
2022-10-22T17:22:25.837Z,8.70
2022-10-22T17:25:06.646Z,9.27
2022-10-22T17:27:33.379Z,6.03
2022-10-22T17:30:00.056Z,7.07
2022-10-22T17:32:26.771Z,9.73
2022-10-22T17:34:54.514Z,10.23
2022-10-22T17:37:23.814Z,8.82
2022-10-22T17:39:50.522Z,7.03
2022-10-22T17:42:17.338Z,10.73
2022-10-22T17:44:44.035Z,9.82
2022-10-22T17:47:10.830Z,8.45
2022-10-22T17:49:38.690Z,12.18
2022-10-22T17:52:05.390Z,9.48
2022-10-22T17:54:33.397Z,10.15
2022-10-22T17:57:00.148Z,6.45
2022-10-22T17:59:27.892Z,9.52
2022-10-22T18:01:58.143Z,12.95
2022-10-22T18:04:27.051Z,10.88
2022-10-22T18:06:53.757Z,12.40
2022-10-22T18:09:20.492Z,11.13
2022-10-22T18:11:49.200Z,14.80
2022-10-22T18:14:20.162Z,14.40
2022-10-22T18:16:47.580Z,14.40
2022-10-22T18:19:16.808Z,13.65
2022-10-22T18:21:43.603Z,17.50
2022-10-22T18:24:11.299Z,17.35
2022-10-22T18:26:38.298Z,16.13
2022-10-22T18:29:05.116Z,13.02
2022-10-22T18:31:32.702Z,12.27
2022-10-22T18:33:59.489Z,12.98
2022-10-22T18:36:27.879Z,8.60
2022-10-22T18:38:59.785Z,7.63
2022-10-22T18:41:27.431Z,11.98
2022-10-22T18:43:59.989Z,12.65
2022-10-22T18:46:28.579Z,10.05
2022-10-22T18:48:57.082Z,10.23
2022-10-22T18:51:25.143Z,8.38
2022-10-22T18:54:11.359Z,10.43
2022-10-22T18:56:41.864Z,13.93
2022-10-22T18:59:16.734Z,14.07
2022-10-22T19:01:43.537Z,12.32
2022-10-22T19:04:10.280Z,13.82
2022-10-22T19:06:37.604Z,11.93
2022-10-22T19:09:05.199Z,13.50
2022-10-22T19:11:32.605Z,12.02
2022-10-22T19:13:59.374Z,12.10
2022-10-22T19:16:27.275Z,10.90
2022-10-22T19:19:08.219Z,11.60
2022-10-22T19:21:35.343Z,9.55
2022-10-22T19:24:02.420Z,10.95
2022-10-22T19:26:30.416Z,7.55
2022-10-22T19:28:58.342Z,12.93
2022-10-22T19:31:25.914Z,16.45
2022-10-22T19:33:55.267Z,10.13
2022-10-22T19:36:27.936Z,13.55
2022-10-22T19:38:55.789Z,11.80
2022-10-22T19:41:24.564Z,15.73
2022-10-22T19:43:53.086Z,13.02
2022-10-22T19:46:21.512Z,11.90
2022-10-22T19:48:49.740Z,15.73
2022-10-22T19:51:22.686Z,15.73
2022-10-22T19:53:51.245Z,14.95
2022-10-22T19:56:19.877Z,12.10
2022-10-22T19:58:47.126Z,14.63
2022-10-22T20:01:16.138Z,15.52
2022-10-22T20:03:43.140Z,15.52
2022-10-22T20:06:12.305Z,14.45
2022-10-22T20:08:39.784Z,15.10
2022-10-22T20:11:10.541Z,14.57
2022-10-22T20:16:09.716Z,17.80
2022-10-22T20:18:36.712Z,12.88
2022-10-22T20:21:07.882Z,11.60
2022-10-22T20:23:35.522Z,14.70
2022-10-22T20:26:05.790Z,18.23
2022-10-22T20:28:33.267Z,15.48
2022-10-22T20:31:00.048Z,11.05
2022-10-22T20:33:26.850Z,14.23
2022-10-22T20:36:05.454Z,7.38
2022-10-22T20:38:32.282Z,9.27
2022-10-22T20:41:13.817Z,10.20
2022-10-22T20:43:42.930Z,10.93
2022-10-22T20:46:17.739Z,15.10
2022-10-22T20:48:44.643Z,10.40
2022-10-22T20:51:12.296Z,11.68
2022-10-22T20:53:39.052Z,9.55
2022-10-22T20:56:06.669Z,11.15
2022-10-22T20:58:33.488Z,10.38
2022-10-22T21:01:05.510Z,11.32
2022-10-22T21:06:04.643Z,11.15
2022-10-22T21:08:31.465Z,12.20
2022-10-22T21:10:58.193Z,10.02
2022-10-22T21:13:25.046Z,11.88
2022-10-22T21:15:51.731Z,12.60
2022-10-22T21:18:18.458Z,9.68
2022-10-22T21:20:45.201Z,13.05
2022-10-22T21:23:12.281Z,12.80
2022-10-22T21:25:41.992Z,15.57
2022-10-22T21:28:12.944Z,10.57
2022-10-22T21:30:45.592Z,10.95
2022-10-22T21:33:12.476Z,11.88
2022-10-22T21:35:39.260Z,14.35
2022-10-22T21:38:07.834Z,15.13
2022-10-22T21:40:37.753Z,12.50
2022-10-22T21:43:04.505Z,9.95
2022-10-22T21:45:31.210Z,15.77
2022-10-22T21:47:58.031Z,13.65
2022-10-22T21:50:24.769Z,11.82
2022-10-22T21:52:51.469Z,12.32
2022-10-22T21:55:18.243Z,10.90
2022-10-22T21:57:45.108Z,11.70
2022-10-22T22:00:13.315Z,11.52
2022-10-22T22:02:40.198Z,14.88
2022-10-22T22:05:07.587Z,13.88
2022-10-22T22:07:34.833Z,13.52
2022-10-22T22:10:01.564Z,13.02
2022-10-22T22:12:28.306Z,13.50
2022-10-22T22:14:55.084Z,13.02
2022-10-22T22:17:21.830Z,16.58
2022-10-22T22:19:48.565Z,14.43
2022-10-22T22:22:15.300Z,12.15
2022-10-22T22:24:42.040Z,10.77
2022-10-22T22:27:08.806Z,11.70
2022-10-22T22:29:35.612Z,9.82
2022-10-22T22:32:02.351Z,14.50
2022-10-22T22:34:29.134Z,10.05
2022-10-22T22:36:55.901Z,14.43
2022-10-22T22:39:23.454Z,12.07
2022-10-22T22:41:50.176Z,10.98
2022-10-22T22:44:17.163Z,10.48
2022-10-22T22:46:44.306Z,11.63
2022-10-22T22:49:12.877Z,10.73
2022-10-22T22:51:39.794Z,8.50
2022-10-22T22:54:06.533Z,7.68
2022-10-22T22:56:37.363Z,11.30
2022-10-22T22:59:04.438Z,10.57
2022-10-22T23:01:34.413Z,8.43
2022-10-22T23:04:05.648Z,9.68
2022-10-22T23:06:36.087Z,9.18
2022-10-22T23:09:04.078Z,9.35
2022-10-22T23:11:30.953Z,9.77
2022-10-22T23:14:04.888Z,12.23
2022-10-22T23:16:34.731Z,10.32
2022-10-22T23:19:01.767Z,13.68
2022-10-22T23:21:31.394Z,9.30
2022-10-22T23:24:01.340Z,11.68
2022-10-22T23:26:33.813Z,9.13
2022-10-22T23:29:06.026Z,10.85
2022-10-22T23:31:33.456Z,8.43
2022-10-22T23:34:00.638Z,7.95
2022-10-22T23:36:27.671Z,10.73
2022-10-22T23:38:55.602Z,11.32
2022-10-22T23:41:22.480Z,12.13
2022-10-22T23:43:50.305Z,8.07
2022-10-22T23:46:17.307Z,7.93
2022-10-22T23:48:44.139Z,8.93
2022-10-22T23:51:13.676Z,12.55
2022-10-22T23:53:42.170Z,10.18
2022-10-22T23:56:13.131Z,10.63
2022-10-22T23:58:40.619Z,10.77
